KSMX/SMX METAR and TAF weather

Enter ICAO airport designator
Station Type Date Time Source
KSMX METAR 2019/02/16 06:51 UTC NOAA

KSMX 160651Z AUTO 13004KT 10SM SCT035 SCT060 07/06 A3016 RMK AO2 SLP215 T00720061


Station Type Date Time Source
KSMX Decoded METAR 2019/02/16 06:51 UTC NOAA

SANTA MARIA PUBLIC AIRPORT, CA, United States (KSMX) 34-54N 120-28W 74M
Feb 16, 2019 - 01:51 AM EST / 2019.02.16 0651 UTC
Wind: from the SE (130 degrees) at 5 MPH (4 KT):0
Visibility: 10 mile(s):0
Sky conditions: partly cloudy
Temperature: 45.0 F (7.2 C)
Dew Point: 43.0 F (6.1 C)
Relative Humidity: 92%
Pressure (altimeter): 30.16 in. Hg (1021 hPa)
ob: KSMX 160651Z AUTO 13004KT 10SM SCT035 SCT060 07/06 A3016 RMK AO2 SLP215 T00720061
cycle: 7

Station Type Date Time Source
KSMX TAF 2019/02/16 06:54 UTC NOAA

TAF KSMX 160550Z 1606/1706 32007KT P6SM VCSH SCT025 OVC040
FM161800 31012KT P6SM VCSH BKN050
FM162100 31018G28KT P6SM VCSH BKN050
FM170300 31010KT P6SM BKN050


Example: see airport list